sensor_id;sensor_type;location;lat;lon;timestamp;pressure;altitude;pressure_sealevel;temperature;humidity
1652;BME280;823;49.028;8.454;2023-01-30T00:03:23;101255.34;;;3.36;54.47
1652;BME280;823;49.028;8.454;2023-01-30T00:08:23;101241.72;;;3.35;54.28
1652;BME280;823;49.028;8.454;2023-01-30T00:13:24;101233.00;;;3.18;54.76
1652;BME280;823;49.028;8.454;2023-01-30T00:18:24;101229.50;;;3.11;54.88
1652;BME280;823;49.028;8.454;2023-01-30T00:23:26;101235.53;;;3.16;54.77
1652;BME280;823;49.028;8.454;2023-01-30T00:28:26;101268.66;;;3.10;54.38
1652;BME280;823;49.028;8.454;2023-01-30T00:33:27;101285.75;;;3.13;54.43
1652;BME280;823;49.028;8.454;2023-01-30T00:38:27;101302.00;;;3.16;54.51
1652;BME280;823;49.028;8.454;2023-01-30T00:43:28;101312.81;;;2.97;55.08
1652;BME280;823;49.028;8.454;2023-01-30T00:48:47;101286.56;;;3.10;54.89
1652;BME280;823;49.028;8.454;2023-01-30T00:53:47;101289.84;;;3.00;55.44
1652;BME280;823;49.028;8.454;2023-01-30T00:58:48;101297.63;;;3.06;55.01
1652;BME280;823;49.028;8.454;2023-01-30T01:03:48;101300.22;;;3.11;54.82
1652;BME280;823;49.028;8.454;2023-01-30T01:08:48;101312.00;;;2.98;55.31
1652;BME280;823;49.028;8.454;2023-01-30T01:13:53;101322.25;;;2.99;55.33
1652;BME280;823;49.028;8.454;2023-01-30T01:18:54;101324.09;;;3.13;54.84
1652;BME280;823;49.028;8.454;2023-01-30T01:23:56;101318.75;;;2.94;55.18
1652;BME280;823;49.028;8.454;2023-01-30T01:28:57;101290.75;;;3.02;55.64
1652;BME280;823;49.028;8.454;2023-01-30T01:33:58;101266.03;;;3.01;55.54
1652;BME280;823;49.028;8.454;2023-01-30T01:38:58;101260.72;;;2.84;55.59
1652;BME280;823;49.028;8.454;2023-01-30T01:44:02;101240.47;;;2.99;55.30
1652;BME280;823;49.028;8.454;2023-01-30T01:49:07;101219.13;;;2.99;55.58
1652;BME280;823;49.028;8.454;2023-01-30T01:54:16;101240.44;;;2.98;55.80
1652;BME280;823;49.028;8.454;2023-01-30T01:59:43;101229.47;;;3.08;55.70
1652;BME280;823;49.028;8.454;2023-01-30T02:04:47;101233.66;;;3.03;55.59
1652;BME280;823;49.028;8.454;2023-01-30T02:10:01;101197.16;;;3.13;55.13
1652;BME280;823;49.028;8.454;2023-01-30T02:15:03;101201.47;;;3.19;54.83
1652;BME280;823;49.028;8.454;2023-01-30T02:36:32;101153.56;;;2.98;55.63
1652;BME280;823;49.028;8.454;2023-01-30T02:41:45;101104.13;;;2.99;55.92
1652;BME280;823;49.028;8.454;2023-01-30T02:47:02;101073.53;;;3.02;55.45
1652;BME280;823;49.028;8.454;2023-01-30T02:52:07;101061.47;;;2.92;55.89
1652;BME280;823;49.028;8.454;2023-01-30T02:57:20;101078.31;;;2.72;56.51
1652;BME280;823;49.028;8.454;2023-01-30T03:08:38;101009.75;;;3.17;55.34
1652;BME280;823;49.028;8.454;2023-01-30T03:13:59;101027.47;;;2.99;55.58
1652;BME280;823;49.028;8.454;2023-01-30T03:19:03;101041.03;;;2.90;55.80
1652;BME280;823;49.028;8.454;2023-01-30T03:24:05;101071.78;;;2.99;55.66
1652;BME280;823;49.028;8.454;2023-01-30T03:29:06;101075.28;;;3.11;55.04
1652;BME280;823;49.028;8.454;2023-01-30T03:34:06;101085.28;;;2.86;55.96
1652;BME280;823;49.028;8.454;2023-01-30T03:39:06;101099.97;;;3.10;55.55
1652;BME280;823;49.028;8.454;2023-01-30T03:44:07;101104.44;;;3.28;55.34
1652;BME280;823;49.028;8.454;2023-01-30T03:49:07;101094.84;;;3.07;55.71
1652;BME280;823;49.028;8.454;2023-01-30T03:54:08;101094.13;;;3.22;55.27
1652;BME280;823;49.028;8.454;2023-01-30T03:59:08;101081.31;;;3.19;55.39
1652;BME280;823;49.028;8.454;2023-01-30T04:04:08;101100.19;;;3.36;54.96
1652;BME280;823;49.028;8.454;2023-01-30T04:09:09;101109.53;;;3.30;54.85
1652;BME280;823;49.028;8.454;2023-01-30T04:14:09;101089.16;;;3.40;54.83
1652;BME280;823;49.028;8.454;2023-01-30T04:19:09;101087.41;;;3.36;54.83
1652;BME280;823;49.028;8.454;2023-01-30T04:24:10;101100.38;;;3.58;54.44
1652;BME280;823;49.028;8.454;2023-01-30T04:29:10;101101.88;;;3.31;54.53
1652;BME280;823;49.028;8.454;2023-01-30T04:34:10;101100.38;;;3.60;53.35
1652;BME280;823;49.028;8.454;2023-01-30T04:39:10;101102.94;;;3.63;54.02
1652;BME280;823;49.028;8.454;2023-01-30T04:44:11;101088.50;;;3.68;53.81
1652;BME280;823;49.028;8.454;2023-01-30T04:49:11;101090.31;;;3.84;53.06
1652;BME280;823;49.028;8.454;2023-01-30T04:54:12;101087.56;;;3.53;53.39
1652;BME280;823;49.028;8.454;2023-01-30T04:59:12;101062.94;;;3.71;53.30
1652;BME280;823;49.028;8.454;2023-01-30T05:04:12;101061.00;;;3.39;53.73
1652;BME280;823;49.028;8.454;2023-01-30T05:09:13;101054.31;;;3.53;53.72
1652;BME280;823;49.028;8.454;2023-01-30T05:14:13;101056.16;;;3.76;53.32
1652;BME280;823;49.028;8.454;2023-01-30T05:19:13;101050.94;;;3.61;53.68
1652;BME280;823;49.028;8.454;2023-01-30T05:24:14;101055.22;;;3.63;53.40
1652;BME280;823;49.028;8.454;2023-01-30T05:29:14;101049.13;;;3.46;53.91
1652;BME280;823;49.028;8.454;2023-01-30T05:34:14;101021.13;;;3.66;53.27
1652;BME280;823;49.028;8.454;2023-01-30T05:39:15;101022.75;;;3.53;54.17
1652;BME280;823;49.028;8.454;2023-01-30T05:44:15;101026.31;;;3.78;53.62
1652;BME280;823;49.028;8.454;2023-01-30T05:49:15;101038.09;;;3.54;54.03
1652;BME280;823;49.028;8.454;2023-01-30T05:54:16;101037.16;;;3.40;54.95
1652;BME280;823;49.028;8.454;2023-01-30T05:59:16;101023.63;;;3.52;54.35
1652;BME280;823;49.028;8.454;2023-01-30T06:04:17;101015.03;;;3.44;54.78
1652;BME280;823;49.028;8.454;2023-01-30T06:09:18;101015.97;;;3.56;54.66
1652;BME280;823;49.028;8.454;2023-01-30T06:14:18;101008.38;;;3.72;54.41
1652;BME280;823;49.028;8.454;2023-01-30T06:19:18;101007.47;;;3.64;55.02
1652;BME280;823;49.028;8.454;2023-01-30T06:24:18;100991.22;;;3.55;55.90
1652;BME280;823;49.028;8.454;2023-01-30T06:29:19;101001.38;;;3.45;56.61
1652;BME280;823;49.028;8.454;2023-01-30T06:34:19;100998.03;;;3.52;56.13
1652;BME280;823;49.028;8.454;2023-01-30T06:39:20;101015.03;;;3.45;56.75
1652;BME280;823;49.028;8.454;2023-01-30T06:44:20;101020.16;;;3.48;56.25
1652;BME280;823;49.028;8.454;2023-01-30T06:49:20;101012.56;;;3.59;56.21
1652;BME280;823;49.028;8.454;2023-01-30T06:54:21;101016.81;;;3.57;56.34
1652;BME280;823;49.028;8.454;2023-01-30T06:59:21;101024.53;;;3.68;56.10
1652;BME280;823;49.028;8.454;2023-01-30T07:04:21;101042.44;;;3.65;55.87
1652;BME280;823;49.028;8.454;2023-01-30T07:09:21;101054.50;;;3.84;55.32
1652;BME280;823;49.028;8.454;2023-01-30T07:14:22;101046.66;;;3.60;55.98
1652;BME280;823;49.028;8.454;2023-01-30T07:19:22;101052.63;;;3.57;55.99
1652;BME280;823;49.028;8.454;2023-01-30T07:24:22;101057.00;;;3.77;55.19
1652;BME280;823;49.028;8.454;2023-01-30T07:29:23;101047.63;;;3.75;55.42
1652;BME280;823;49.028;8.454;2023-01-30T07:34:23;101078.34;;;3.77;55.42
1652;BME280;823;49.028;8.454;2023-01-30T07:39:23;101085.19;;;3.78;55.64
1652;BME280;823;49.028;8.454;2023-01-30T07:44:24;101057.88;;;3.80;55.93
1652;BME280;823;49.028;8.454;2023-01-30T07:49:24;101020.38;;;3.82;55.81
1652;BME280;823;49.028;8.454;2023-01-30T07:54:24;101007.47;;;3.64;56.21
1652;BME280;823;49.028;8.454;2023-01-30T07:59:25;101011.81;;;3.80;56.26
1652;BME280;823;49.028;8.454;2023-01-30T08:04:26;101016.84;;;3.60;56.72
1652;BME280;823;49.028;8.454;2023-01-30T08:09:26;101015.97;;;3.61;56.96
1652;BME280;823;49.028;8.454;2023-01-30T08:14:27;101034.91;;;3.92;56.07
1652;BME280;823;49.028;8.454;2023-01-30T08:19:28;101018.66;;;3.83;56.12
1652;BME280;823;49.028;8.454;2023-01-30T08:24:28;101040.91;;;3.96;55.67
1652;BME280;823;49.028;8.454;2023-01-30T08:29:29;101036.69;;;4.14;55.85
1652;BME280;823;49.028;8.454;2023-01-30T08:34:29;101029.84;;;4.06;55.73
1652;BME280;823;49.028;8.454;2023-01-30T08:39:30;101007.63;;;3.96;56.12
1652;BME280;823;49.028;8.454;2023-01-30T08:44:30;101001.59;;;3.83;56.33
1652;BME280;823;49.028;8.454;2023-01-30T08:49:30;101013.56;;;3.87;56.29
1652;BME280;823;49.028;8.454;2023-01-30T08:54:31;100988.00;;;3.90;56.55
1652;BME280;823;49.028;8.454;2023-01-30T08:59:31;100999.91;;;3.88;56.62
1652;BME280;823;49.028;8.454;2023-01-30T09:04:31;100996.66;;;4.30;56.14
1652;BME280;823;49.028;8.454;2023-01-30T09:09:32;100997.50;;;4.29;56.11
1652;BME280;823;49.028;8.454;2023-01-30T09:14:32;101006.81;;;4.06;56.10
1652;BME280;823;49.028;8.454;2023-01-30T09:19:33;101006.88;;;4.23;55.79
1652;BME280;823;49.028;8.454;2023-01-30T09:24:36;100999.06;;;3.89;56.51
1652;BME280;823;49.028;8.454;2023-01-30T09:29:36;100999.84;;;3.73;57.50
1652;BME280;823;49.028;8.454;2023-01-30T09:34:36;100993.19;;;4.12;56.58
1652;BME280;823;49.028;8.454;2023-01-30T09:39:36;100982.94;;;4.09;56.78
1652;BME280;823;49.028;8.454;2023-01-30T09:55:38;100977.91;;;4.49;56.49
1652;BME280;823;49.028;8.454;2023-01-30T10:00:41;100967.63;;;4.43;56.79
1652;BME280;823;49.028;8.454;2023-01-30T10:16:40;100957.41;;;4.52;58.10
1652;BME280;823;49.028;8.454;2023-01-30T10:22:06;100954.84;;;4.54;58.39
1652;BME280;823;49.028;8.454;2023-01-30T10:27:13;100962.50;;;4.43;58.62
1652;BME280;823;49.028;8.454;2023-01-30T10:37:29;100929.22;;;4.55;59.27
1652;BME280;823;49.028;8.454;2023-01-30T10:53:27;100945.47;;;4.73;59.88
1652;BME280;823;49.028;8.454;2023-01-30T11:04:01;100942.91;;;4.76;60.08
1652;BME280;823;49.028;8.454;2023-01-30T11:09:02;100961.72;;;4.61;60.45
1652;BME280;823;49.028;8.454;2023-01-30T11:14:08;100957.41;;;4.68;60.42
1652;BME280;823;49.028;8.454;2023-01-30T11:19:09;100939.47;;;4.69;60.86
1652;BME280;823;49.028;8.454;2023-01-30T11:24:21;100942.06;;;4.83;60.64
1652;BME280;823;49.028;8.454;2023-01-30T11:29:26;100942.06;;;4.86;60.99
1652;BME280;823;49.028;8.454;2023-01-30T11:34:27;100913.03;;;4.67;61.74
1652;BME280;823;49.028;8.454;2023-01-30T11:39:27;100910.44;;;4.56;62.54
1652;BME280;823;49.028;8.454;2023-01-30T11:49:38;100917.28;;;4.93;61.83
1652;BME280;823;49.028;8.454;2023-01-30T11:54:42;100918.97;;;5.03;61.88
1652;BME280;823;49.028;8.454;2023-01-30T11:59:57;100942.91;;;4.84;62.41
1652;BME280;823;49.028;8.454;2023-01-30T12:05:05;100930.09;;;4.87;62.18
1652;BME280;823;49.028;8.454;2023-01-30T12:10:26;100919.00;;;4.75;62.77
1652;BME280;823;49.028;8.454;2023-01-30T12:15:30;100930.94;;;4.72;63.08
1652;BME280;823;49.028;8.454;2023-01-30T12:20:51;100911.31;;;4.86;62.62
1652;BME280;823;49.028;8.454;2023-01-30T12:26:04;100922.41;;;4.94;62.80
1652;BME280;823;49.028;8.454;2023-01-30T12:57:06;100944.63;;;4.75;62.51
1652;BME280;823;49.028;8.454;2023-01-30T13:02:33;100948.88;;;4.83;62.00
1652;BME280;823;49.028;8.454;2023-01-30T13:13:30;100942.06;;;4.77;62.26
1652;BME280;823;49.028;8.454;2023-01-30T13:18:42;100945.47;;;4.60;62.87
1652;BME280;823;49.028;8.454;2023-01-30T13:24:09;100946.34;;;4.89;61.89
1652;BME280;823;49.028;8.454;2023-01-30T13:34:38;100943.75;;;4.80;62.98
1652;BME280;823;49.028;8.454;2023-01-30T13:39:44;100953.13;;;5.11;62.09
1652;BME280;823;49.028;8.454;2023-01-30T13:44:46;100967.59;;;5.43;61.10
1652;BME280;823;49.028;8.454;2023-01-30T13:50:01;100976.97;;;5.52;60.91
1652;BME280;823;49.028;8.454;2023-01-30T14:00:29;100983.03;;;5.26;61.63
1652;BME280;823;49.028;8.454;2023-01-30T14:11:00;101004.41;;;5.13;62.21
1652;BME280;823;49.028;8.454;2023-01-30T14:16:03;100989.81;;;5.49;61.34
1652;BME280;823;49.028;8.454;2023-01-30T14:21:19;100994.13;;;5.27;62.47
1652;BME280;823;49.028;8.454;2023-01-30T14:31:48;101005.25;;;5.24;62.32
1652;BME280;823;49.028;8.454;2023-01-30T14:36:50;101011.16;;;5.62;61.74
1652;BME280;823;49.028;8.454;2023-01-30T14:42:21;101024.03;;;5.57;61.97
1652;BME280;823;49.028;8.454;2023-01-30T14:47:21;101010.28;;;5.74;61.59
1652;BME280;823;49.028;8.454;2023-01-30T14:52:30;101035.09;;;5.69;61.20
1652;BME280;823;49.028;8.454;2023-01-30T14:57:33;101037.63;;;5.89;60.85
1652;BME280;823;49.028;8.454;2023-01-30T15:02:40;101052.22;;;5.62;61.24
1652;BME280;823;49.028;8.454;2023-01-30T15:35:01;101065.91;;;5.72;61.38
1652;BME280;823;49.028;8.454;2023-01-30T15:45:22;101088.97;;;5.92;60.74
1652;BME280;823;49.028;8.454;2023-01-30T15:50:23;101096.66;;;5.95;60.53
1652;BME280;823;49.028;8.454;2023-01-30T15:55:34;101110.38;;;5.89;60.88
1652;BME280;823;49.028;8.454;2023-01-30T16:00:39;101107.81;;;5.86;61.01
1652;BME280;823;49.028;8.454;2023-01-30T16:05:48;101110.41;;;5.75;61.11
1652;BME280;823;49.028;8.454;2023-01-30T16:10:50;101121.50;;;5.74;61.10
1652;BME280;823;49.028;8.454;2023-01-30T16:15:54;101108.69;;;5.79;60.98
1652;BME280;823;49.028;8.454;2023-01-30T16:21:00;101124.94;;;5.69;61.66
1652;BME280;823;49.028;8.454;2023-01-30T16:26:02;101133.50;;;5.54;61.83
1652;BME280;823;49.028;8.454;2023-01-30T16:31:05;101142.06;;;5.59;62.03
1652;BME280;823;49.028;8.454;2023-01-30T16:46:45;101174.56;;;5.61;62.11
1652;BME280;823;49.028;8.454;2023-01-30T16:51:46;101162.56;;;5.85;61.13
1652;BME280;823;49.028;8.454;2023-01-30T16:56:51;101162.59;;;5.91;61.12
1652;BME280;823;49.028;8.454;2023-01-30T17:01:53;101177.97;;;5.85;61.33
1652;BME280;823;49.028;8.454;2023-01-30T17:07:00;101180.56;;;5.71;61.54
1652;BME280;823;49.028;8.454;2023-01-30T17:12:37;101173.69;;;5.70;61.52
1652;BME280;823;49.028;8.454;2023-01-30T17:17:42;101189.97;;;5.74;61.73
1652;BME280;823;49.028;8.454;2023-01-30T17:22:45;101183.97;;;5.38;62.78
1652;BME280;823;49.028;8.454;2023-01-30T17:27:47;101174.59;;;5.68;61.97
1652;BME280;823;49.028;8.454;2023-01-30T17:32:47;101181.41;;;5.64;62.46
1652;BME280;823;49.028;8.454;2023-01-30T17:37:49;101189.13;;;5.64;62.30
1652;BME280;823;49.028;8.454;2023-01-30T17:42:50;101211.38;;;5.65;62.37
1652;BME280;823;49.028;8.454;2023-01-30T17:47:50;101225.03;;;5.81;61.20
1652;BME280;823;49.028;8.454;2023-01-30T17:52:51;101240.44;;;5.78;61.90
1652;BME280;823;49.028;8.454;2023-01-30T17:57:51;101259.25;;;5.63;62.58
1652;BME280;823;49.028;8.454;2023-01-30T18:02:52;101256.69;;;5.78;61.90
1652;BME280;823;49.028;8.454;2023-01-30T18:07:53;101278.13;;;5.80;62.35
1652;BME280;823;49.028;8.454;2023-01-30T18:12:53;101280.66;;;5.85;62.33
1652;BME280;823;49.028;8.454;2023-01-30T18:17:53;101279.84;;;6.05;61.50
1652;BME280;823;49.028;8.454;2023-01-30T18:22:55;101291.81;;;5.93;62.01
1652;BME280;823;49.028;8.454;2023-01-30T18:27:55;101301.25;;;6.16;61.48
1652;BME280;823;49.028;8.454;2023-01-30T18:32:56;101308.91;;;5.88;61.57
1652;BME280;823;49.028;8.454;2023-01-30T18:37:56;101307.22;;;5.95;61.27
1652;BME280;823;49.028;8.454;2023-01-30T18:42:56;101305.50;;;5.91;61.64
1652;BME280;823;49.028;8.454;2023-01-30T18:47:56;101320.91;;;5.92;61.58
1652;BME280;823;49.028;8.454;2023-01-30T18:52:57;101333.72;;;5.94;61.91
1652;BME280;823;49.028;8.454;2023-01-30T18:57:58;101337.22;;;5.97;61.88
1652;BME280;823;49.028;8.454;2023-01-30T19:02:58;101349.22;;;6.14;61.44
1652;BME280;823;49.028;8.454;2023-01-30T19:07:59;101351.78;;;6.08;61.88
1652;BME280;823;49.028;8.454;2023-01-30T19:12:59;101356.94;;;6.08;62.03
1652;BME280;823;49.028;8.454;2023-01-30T19:18:18;101338.09;;;6.34;61.29
1652;BME280;823;49.028;8.454;2023-01-30T19:23:18;101343.22;;;6.38;61.00
1652;BME280;823;49.028;8.454;2023-01-30T19:28:18;101350.94;;;6.43;61.24
1652;BME280;823;49.028;8.454;2023-01-30T19:33:19;101362.91;;;6.04;62.20
1652;BME280;823;49.028;8.454;2023-01-30T19:38:19;101362.94;;;6.30;61.57
1652;BME280;823;49.028;8.454;2023-01-30T19:43:20;101367.19;;;6.02;62.48
1652;BME280;823;49.028;8.454;2023-01-30T19:48:20;101373.22;;;6.32;61.65
1652;BME280;823;49.028;8.454;2023-01-30T19:53:20;101370.63;;;6.33;61.85
1652;BME280;823;49.028;8.454;2023-01-30T19:58:21;101378.31;;;6.28;61.58
1652;BME280;823;49.028;8.454;2023-01-30T20:03:21;101382.63;;;6.50;61.00
1652;BME280;823;49.028;8.454;2023-01-30T20:08:21;101400.59;;;6.59;60.66
1652;BME280;823;49.028;8.454;2023-01-30T20:13:21;101401.47;;;6.52;60.95
1652;BME280;823;49.028;8.454;2023-01-30T20:18:22;101406.63;;;6.44;61.29
1652;BME280;823;49.028;8.454;2023-01-30T20:23:22;101417.75;;;6.43;61.16
1652;BME280;823;49.028;8.454;2023-01-30T20:28:23;101416.03;;;6.26;61.57
1652;BME280;823;49.028;8.454;2023-01-30T20:33:23;101415.16;;;6.64;60.61
1652;BME280;823;49.028;8.454;2023-01-30T20:38:23;101422.88;;;6.37;60.98
1652;BME280;823;49.028;8.454;2023-01-30T20:43:24;101428.88;;;6.42;60.67
1652;BME280;823;49.028;8.454;2023-01-30T20:48:24;101426.34;;;6.63;60.49
1652;BME280;823;49.028;8.454;2023-01-30T20:53:24;101427.19;;;6.45;60.94
1652;BME280;823;49.028;8.454;2023-01-30T20:58:26;101428.88;;;6.68;59.98
1652;BME280;823;49.028;8.454;2023-01-30T21:03:26;101441.75;;;6.63;60.26
1652;BME280;823;49.028;8.454;2023-01-30T21:08:27;101458.00;;;6.52;60.76
1652;BME280;823;49.028;8.454;2023-01-30T21:13:27;101451.19;;;6.66;60.52
1652;BME280;823;49.028;8.454;2023-01-30T21:18:32;101458.88;;;6.74;60.07
1652;BME280;823;49.028;8.454;2023-01-30T21:23:33;101473.44;;;6.65;60.25
1652;BME280;823;49.028;8.454;2023-01-30T21:28:35;101468.31;;;6.78;59.87
1652;BME280;823;49.028;8.454;2023-01-30T21:33:35;101478.59;;;6.64;60.38
1652;BME280;823;49.028;8.454;2023-01-30T21:38:36;101484.59;;;6.68;60.11
1652;BME280;823;49.028;8.454;2023-01-30T21:43:55;101488.03;;;6.77;59.79
1652;BME280;823;49.028;8.454;2023-01-30T21:48:55;101508.59;;;6.63;60.17
1652;BME280;823;49.028;8.454;2023-01-30T21:53:55;101513.72;;;6.73;59.99
1652;BME280;823;49.028;8.454;2023-01-30T21:58:59;101514.56;;;6.50;60.48
1652;BME280;823;49.028;8.454;2023-01-30T22:04:02;101522.28;;;6.59;60.38
1652;BME280;823;49.028;8.454;2023-01-30T22:09:03;101524.00;;;6.67;60.38
1652;BME280;823;49.028;8.454;2023-01-30T22:14:04;101531.75;;;6.84;59.69
1652;BME280;823;49.028;8.454;2023-01-30T22:19:04;101532.53;;;6.52;60.74
1652;BME280;823;49.028;8.454;2023-01-30T22:24:06;101543.72;;;6.58;60.14
1652;BME280;823;49.028;8.454;2023-01-30T22:29:07;101531.72;;;6.67;59.83
1652;BME280;823;49.028;8.454;2023-01-30T22:34:08;101536.00;;;6.64;59.98
1652;BME280;823;49.028;8.454;2023-01-30T22:39:08;101522.28;;;6.59;60.13
1652;BME280;823;49.028;8.454;2023-01-30T22:44:09;101524.00;;;6.51;60.11
1652;BME280;823;49.028;8.454;2023-01-30T22:49:09;101521.41;;;6.40;60.63
1652;BME280;823;49.028;8.454;2023-01-30T22:54:12;101524.00;;;6.50;59.99
1652;BME280;823;49.028;8.454;2023-01-30T22:59:15;101522.28;;;6.44;60.26
1652;BME280;823;49.028;8.454;2023-01-30T23:04:23;101527.41;;;6.47;60.26
1652;BME280;823;49.028;8.454;2023-01-30T23:09:23;101531.72;;;6.62;59.85
1652;BME280;823;49.028;8.454;2023-01-30T23:14:24;101535.16;;;6.70;59.37
1652;BME280;823;49.028;8.454;2023-01-30T23:19:24;101527.44;;;6.61;59.96
1652;BME280;823;49.028;8.454;2023-01-30T23:24:24;101525.72;;;6.74;59.40
1652;BME280;823;49.028;8.454;2023-01-30T23:29:25;101523.16;;;6.66;59.56
1652;BME280;823;49.028;8.454;2023-01-30T23:34:25;101514.59;;;6.64;59.68
1652;BME280;823;49.028;8.454;2023-01-30T23:39:25;101501.72;;;6.44;60.34
1652;BME280;823;49.028;8.454;2023-01-30T23:44:26;101501.72;;;6.44;60.22
1652;BME280;823;49.028;8.454;2023-01-30T23:49:26;101483.66;;;6.28;60.64
1652;BME280;823;49.028;8.454;2023-01-30T23:54:26;101483.63;;;6.16;61.05
1652;BME280;823;49.028;8.454;2023-01-30T23:59:27;101493.97;;;6.32;60.65
